Time;durP1;ratioP1;P1;durP2;ratioP2;P2;SDS_P1;SDS_P2;PMS_P1;PMS_P2;Temp;Humidity;BMP_temperature;BMP_pressure;BME280_temperature;BME280_humidity;BME280_pressure;Samples;Min_cycle;Max_cycle;Signal;HPM_P1;HPM_P2
2021/04/24 00:00:39;;;;;;;11.67;6.83;;;12.40;1.00;;;;;;5063451;28;20476;-81
2021/04/24 00:03:08;;;;;;;11.57;6.17;;;12.30;1.00;;;;;;5061540;28;20511;-78
2021/04/24 00:05:39;;;;;;;8.73;4.97;;;12.30;1.00;;;;;;5058353;28;20495;-77
2021/04/24 00:08:08;;;;;;;11.40;5.90;;;12.30;1.00;;;;;;5055822;28;20464;-77
2021/04/24 00:10:38;;;;;;;5.47;4.10;;;12.20;1.00;;;;;;5060427;28;20463;-77
2021/04/24 00:13:07;;;;;;;8.13;4.80;;;12.20;1.00;;;;;;5060210;28;20487;-78
2021/04/24 00:15:35;;;;;;;6.97;3.83;;;12.10;1.00;;;;;;5062212;28;20492;-78
2021/04/24 00:18:03;;;;;;;6.63;4.07;;;12.10;1.00;;;;;;5061882;28;20452;-79
2021/04/24 00:20:31;;;;;;;9.70;3.50;;;12.10;1.00;;;;;;5061137;28;20487;-78
2021/04/24 00:22:58;;;;;;;6.83;4.50;;;12.10;1.00;;;;;;5054559;28;20484;-80
2021/04/24 00:25:26;;;;;;;4.13;3.73;;;12.00;1.00;;;;;;5059723;28;20483;-79
2021/04/24 00:27:53;;;;;;;5.63;3.33;;;12.00;1.00;;;;;;5061849;28;20471;-79
2021/04/24 00:30:21;;;;;;;6.77;4.00;;;12.00;1.00;;;;;;5059953;28;20509;-79
2021/04/24 00:32:49;;;;;;;4.33;3.57;;;11.90;1.00;;;;;;5058108;28;21167;-78
2021/04/24 00:35:17;;;;;;;5.30;3.87;;;11.80;1.00;;;;;;5061941;28;20527;-78
2021/04/24 00:37:46;;;;;;;5.60;3.67;;;11.80;1.00;;;;;;5059657;28;20578;-77
2021/04/24 00:40:14;;;;;;;4.80;3.20;;;11.70;1.00;;;;;;5060125;28;20492;-77
2021/04/24 00:42:41;;;;;;;3.93;3.00;;;11.70;1.00;;;;;;5058910;28;20472;-79
2021/04/24 00:45:11;;;;;;;4.63;3.60;;;11.80;1.00;;;;;;5062891;28;20476;-78
2021/04/24 00:47:38;;;;;;;7.53;4.00;;;11.70;1.00;;;;;;5058797;28;20530;-77
2021/04/24 00:50:08;;;;;;;5.30;4.10;;;11.60;1.00;;;;;;5059308;28;20464;-76
2021/04/24 00:52:35;;;;;;;6.00;3.77;;;11.50;1.00;;;;;;5058223;28;20859;-76
2021/04/24 00:55:05;;;;;;;5.80;3.90;;;11.50;1.00;;;;;;5055222;28;20494;-77
2021/04/24 00:57:33;;;;;;;4.17;3.50;;;11.50;1.00;;;;;;5056479;28;20469;-79
2021/04/24 01:00:00;;;;;;;3.93;3.53;;;11.50;1.00;;;;;;5061332;28;20483;-80
2021/04/24 01:02:27;;;;;;;5.88;4.15;;;11.40;1.00;;;;;;5059458;28;20474;-79
2021/04/24 01:04:54;;;;;;;7.10;4.13;;;11.40;1.00;;;;;;5060633;28;20245;-80
2021/04/24 01:07:22;;;;;;;4.90;3.33;;;11.40;1.00;;;;;;5058592;28;20470;-80
2021/04/24 01:09:49;;;;;;;4.33;3.70;;;11.40;1.00;;;;;;5059119;28;20515;-78
2021/04/24 01:12:17;;;;;;;3.23;2.93;;;11.50;1.00;;;;;;5055345;28;20468;-80
2021/04/24 01:14:44;;;;;;;5.23;3.70;;;11.40;1.00;;;;;;5052519;28;21064;-81
2021/04/24 01:17:11;;;;;;;5.67;3.10;;;11.50;1.00;;;;;;5060992;28;22379;-78
2021/04/24 01:19:38;;;;;;;4.43;3.87;;;11.30;1.00;;;;;;5059881;28;21029;-81
2021/04/24 01:22:09;;;;;;;7.13;4.00;;;11.30;1.00;;;;;;5059880;28;20492;-79
2021/04/24 01:24:36;;;;;;;3.70;3.40;;;11.30;1.00;;;;;;5057784;28;20494;-79
2021/04/24 01:27:04;;;;;;;5.10;3.77;;;11.30;1.00;;;;;;5059182;28;20472;-79
2021/04/24 01:29:32;;;;;;;4.83;3.70;;;11.30;1.00;;;;;;5062363;28;20525;-80
2021/04/24 01:32:00;;;;;;;7.43;5.40;;;11.20;1.00;;;;;;5059230;28;20975;-79
2021/04/24 01:34:29;;;;;;;4.10;3.50;;;11.20;1.00;;;;;;5059879;28;20481;-78
2021/04/24 01:36:57;;;;;;;4.87;3.37;;;11.20;1.00;;;;;;5052746;28;20466;-80
2021/04/24 01:39:26;;;;;;;3.33;2.97;;;11.00;1.00;;;;;;5057949;28;21016;-79
2021/04/24 01:41:53;;;;;;;5.57;3.50;;;11.00;1.00;;;;;;5057513;28;21087;-79
2021/04/24 01:44:21;;;;;;;17.60;7.90;;;11.00;1.00;;;;;;5061654;28;20485;-79
2021/04/24 01:46:48;;;;;;;342.57;107.47;;;11.00;1.00;;;;;;5061652;28;20466;-77
2021/04/24 01:49:16;;;;;;;52.50;22.53;;;10.90;1.00;;;;;;5060658;28;20835;-81
2021/04/24 01:51:43;;;;;;;16.57;7.73;;;10.80;1.00;;;;;;5061234;28;20458;-81
2021/04/24 01:54:11;;;;;;;18.50;8.23;;;10.80;1.00;;;;;;5062073;28;20979;-80
2021/04/24 01:56:45;;;;;;;12.80;6.77;;;10.90;1.00;;;;;;5056750;28;20469;-78
2021/04/24 01:59:13;;;;;;;10.20;4.27;;;10.80;1.00;;;;;;5052586;28;20491;-80
2021/04/24 02:01:41;;;;;;;9.40;4.30;;;10.70;1.00;;;;;;5062942;28;20469;-79
2021/04/24 02:04:08;;;;;;;6.87;4.17;;;10.80;1.00;;;;;;5060885;28;20894;-79
2021/04/24 02:06:35;;;;;;;5.17;4.03;;;11.00;1.00;;;;;;5060041;28;20462;-79
2021/04/24 02:09:07;;;;;;;7.30;4.40;;;10.80;1.00;;;;;;5059981;28;20464;-80
2021/04/24 02:11:35;;;;;;;5.60;3.30;;;10.80;1.00;;;;;;5062167;28;21002;-81
2021/04/24 02:14:05;;;;;;;7.07;4.90;;;10.80;1.00;;;;;;5060080;28;20488;-80
2021/04/24 02:16:32;;;;;;;4.03;3.20;;;10.80;1.00;;;;;;5061919;28;20454;-81
2021/04/24 02:19:00;;;;;;;5.33;3.00;;;10.80;1.00;;;;;;5060615;28;20477;-82
2021/04/24 02:21:27;;;;;;;5.40;2.83;;;10.90;1.00;;;;;;5063601;28;20491;-82
2021/04/24 02:23:56;;;;;;;5.00;3.30;;;10.80;1.00;;;;;;5063780;28;20960;-81
2021/04/24 02:26:24;;;;;;;4.13;2.93;;;10.70;1.00;;;;;;5064030;28;20456;-81
2021/04/24 02:28:51;;;;;;;3.13;2.83;;;10.60;1.00;;;;;;5062270;28;20468;-81
2021/04/24 02:31:19;;;;;;;5.80;3.90;;;10.60;1.00;;;;;;5059468;28;20462;-79
2021/04/24 02:33:46;;;;;;;8.77;3.70;;;10.60;1.00;;;;;;5056132;28;20462;-81
2021/04/24 02:36:14;;;;;;;4.67;3.40;;;10.60;1.00;;;;;;5061189;28;20504;-80
2021/04/24 02:38:50;;;;;;;5.60;2.87;;;10.50;1.00;;;;;;5060576;28;20473;-80
2021/04/24 02:41:17;;;;;;;8.03;3.27;;;10.50;1.00;;;;;;5063832;28;20455;-79
2021/04/24 02:43:45;;;;;;;5.00;3.47;;;10.40;1.00;;;;;;5060551;28;22522;-83
2021/04/24 02:46:13;;;;;;;9.77;3.70;;;10.40;1.00;;;;;;5063347;28;20986;-82
2021/04/24 02:48:41;;;;;;;4.00;2.80;;;10.40;1.00;;;;;;5059397;28;20462;-82
2021/04/24 02:51:08;;;;;;;5.20;3.73;;;10.40;1.00;;;;;;5061578;28;20542;-82
2021/04/24 02:53:35;;;;;;;4.13;2.90;;;10.40;1.00;;;;;;5062556;28;21033;-82
2021/04/24 02:56:02;;;;;;;4.40;2.77;;;10.30;1.00;;;;;;5053811;28;20742;-77
2021/04/24 02:58:30;;;;;;;5.07;2.63;;;10.30;1.00;;;;;;5061595;28;20472;-82
2021/04/24 03:00:57;;;;;;;6.07;3.13;;;10.30;1.00;;;;;;5061615;28;20484;-78
2021/04/24 03:03:24;;;;;;;5.70;3.87;;;10.30;1.00;;;;;;5064976;28;20475;-82
2021/04/24 03:05:54;;;;;;;5.77;3.70;;;10.20;1.00;;;;;;5058217;28;21067;-80
2021/04/24 03:08:21;;;;;;;4.10;3.07;;;10.20;1.00;;;;;;5061247;28;20472;-77
2021/04/24 03:10:49;;;;;;;4.87;2.80;;;10.20;1.00;;;;;;5062667;28;20897;-79
2021/04/24 03:13:16;;;;;;;4.50;3.30;;;10.20;1.00;;;;;;5064064;28;20475;-82
2021/04/24 03:15:43;;;;;;;6.33;3.70;;;10.20;1.00;;;;;;5065742;28;20908;-80
2021/04/24 03:18:10;;;;;;;3.53;3.10;;;10.20;1.00;;;;;;5065484;28;21969;-82
2021/04/24 03:20:38;;;;;;;3.73;3.10;;;10.30;1.00;;;;;;5066671;28;20495;-81
2021/04/24 03:23:09;;;;;;;5.87;3.70;;;10.10;1.00;;;;;;5064661;28;20473;-82
2021/04/24 03:25:36;;;;;;;4.17;3.17;;;10.10;1.00;;;;;;5068397;28;20520;-81
2021/04/24 03:28:04;;;;;;;5.73;3.10;;;10.00;1.00;;;;;;5066858;28;20475;-81
2021/04/24 03:30:31;;;;;;;4.43;3.80;;;10.00;1.00;;;;;;5066079;28;20465;-82
2021/04/24 03:32:58;;;;;;;6.43;3.40;;;9.90;1.00;;;;;;5066861;28;20464;-81
2021/04/24 03:35:25;;;;;;;5.13;2.77;;;9.90;1.00;;;;;;5066457;28;20481;-80
2021/04/24 03:37:53;;;;;;;4.20;3.20;;;9.90;1.00;;;;;;5067214;28;20482;-83
2021/04/24 03:40:21;;;;;;;4.77;3.07;;;9.90;1.00;;;;;;5066473;28;20485;-83
2021/04/24 03:42:55;;;;;;;6.20;3.80;;;9.90;1.00;;;;;;5074542;28;20856;-83
2021/04/24 03:45:23;;;;;;;5.00;2.97;;;9.90;1.00;;;;;;5077083;28;20478;-81
2021/04/24 03:47:52;;;;;;;4.67;3.50;;;9.90;1.00;;;;;;5075625;28;20470;-80
2021/04/24 03:50:20;;;;;;;6.30;4.50;;;9.80;1.00;;;;;;5074900;28;20446;-82
2021/04/24 03:52:49;;;;;;;5.70;3.10;;;9.70;1.00;;;;;;5071942;28;20469;-82
2021/04/24 03:55:18;;;;;;;3.90;3.20;;;9.70;1.00;;;;;;5076167;28;20609;-80
2021/04/24 03:57:46;;;;;;;5.73;3.53;;;9.70;1.00;;;;;;5064094;28;21007;-78
2021/04/24 04:00:17;;;;;;;3.53;3.10;;;9.70;1.00;;;;;;5055964;28;20490;-79
2021/04/24 04:02:49;;;;;;;5.20;3.07;;;9.60;1.00;;;;;;5056206;28;20475;-79
2021/04/24 04:05:17;;;;;;;5.67;2.90;;;9.60;1.00;;;;;;5066986;28;20478;-79
2021/04/24 04:07:46;;;;;;;3.60;2.90;;;9.50;1.00;;;;;;5066621;28;20485;-79
2021/04/24 04:10:15;;;;;;;7.70;3.90;;;9.60;1.00;;;;;;5066361;28;20470;-76
2021/04/24 04:12:42;;;;;;;5.40;3.50;;;9.60;1.00;;;;;;5059173;28;20812;-79
2021/04/24 04:15:12;;;;;;;4.80;3.13;;;9.30;1.00;;;;;;5054758;28;20481;-75
2021/04/24 04:17:40;;;;;;;4.23;3.00;;;9.20;1.00;;;;;;5078663;28;20546;-78
2021/04/24 04:20:09;;;;;;;5.07;3.50;;;9.30;1.00;;;;;;5053867;28;20511;-80
2021/04/24 04:22:37;;;;;;;4.67;3.30;;;9.40;1.00;;;;;;5064719;28;20473;-78
2021/04/24 04:25:05;;;;;;;4.20;2.87;;;9.40;1.00;;;;;;5059286;28;20487;-79
2021/04/24 04:27:32;;;;;;;8.27;4.17;;;9.40;1.00;;;;;;5066256;28;20480;-78
2021/04/24 04:29:59;;;;;;;7.63;3.80;;;9.40;1.00;;;;;;5064524;28;20455;-79
2021/04/24 04:32:27;;;;;;;3.27;2.97;;;9.40;1.00;;;;;;5064756;28;20446;-81
2021/04/24 04:34:55;;;;;;;10.73;4.07;;;9.50;1.00;;;;;;5060549;28;20471;-80
2021/04/24 04:37:22;;;;;;;5.30;3.60;;;9.50;1.00;;;;;;5066981;28;21188;-79
2021/04/24 04:39:49;;;;;;;6.60;3.70;;;9.50;1.00;;;;;;5063447;28;20484;-79
2021/04/24 04:42:17;;;;;;;3.77;3.10;;;9.50;1.00;;;;;;5062160;28;20532;-78
2021/04/24 04:44:44;;;;;;;5.40;3.50;;;9.50;1.00;;;;;;5062899;28;20486;-80
2021/04/24 04:47:11;;;;;;;5.10;2.60;;;9.50;1.00;;;;;;5064423;28;20471;-79
2021/04/24 04:49:39;;;;;;;8.90;4.20;;;9.50;1.00;;;;;;5063592;28;20566;-81
2021/04/24 04:52:06;;;;;;;6.50;3.60;;;9.40;1.00;;;;;;5065073;28;20912;-80
2021/04/24 04:54:33;;;;;;;4.90;3.50;;;9.40;1.00;;;;;;5063285;28;20512;-80
2021/04/24 04:57:01;;;;;;;5.23;3.80;;;9.40;1.00;;;;;;5066061;28;20474;-80
2021/04/24 04:59:28;;;;;;;6.20;3.43;;;9.30;1.00;;;;;;5065711;28;20506;-80
2021/04/24 05:01:56;;;;;;;5.20;3.50;;;9.30;1.00;;;;;;5054969;28;20957;-79
2021/04/24 05:04:32;;;;;;;7.07;3.90;;;9.20;1.00;;;;;;5062596;28;20480;-78
2021/04/24 05:07:00;;;;;;;4.40;3.40;;;9.20;1.00;;;;;;5066230;28;20491;-81
2021/04/24 05:09:27;;;;;;;7.00;4.00;;;9.20;1.00;;;;;;5065672;28;20974;-80
2021/04/24 05:11:54;;;;;;;3.60;3.30;;;9.30;1.00;;;;;;5067263;28;20478;-79
2021/04/24 05:14:21;;;;;;;4.13;3.77;;;9.30;1.00;;;;;;5063572;28;20483;-79
2021/04/24 05:16:49;;;;;;;4.23;3.53;;;9.30;1.00;;;;;;5064098;28;20498;-79
2021/04/24 05:19:16;;;;;;;5.77;3.30;;;9.30;1.00;;;;;;5062813;28;21160;-81
2021/04/24 05:21:43;;;;;;;4.47;4.00;;;9.30;1.00;;;;;;5061462;28;20543;-79
2021/04/24 05:24:11;;;;;;;7.27;3.83;;;9.40;1.00;;;;;;5060692;28;20961;-79
2021/04/24 05:26:39;;;;;;;5.43;3.43;;;9.10;1.00;;;;;;5066773;28;20994;-80
2021/04/24 05:29:06;;;;;;;9.43;3.90;;;9.40;1.00;;;;;;5063852;28;21128;-80
2021/04/24 05:31:33;;;;;;;4.73;4.07;;;9.50;1.00;;;;;;5063365;28;20465;-80
2021/04/24 05:34:01;;;;;;;6.87;3.60;;;9.60;1.00;;;;;;5062561;28;20469;-79
2021/04/24 05:36:28;;;;;;;7.40;4.20;;;9.60;1.00;;;;;;5065395;28;20559;-81
2021/04/24 05:38:56;;;;;;;5.30;4.07;;;9.60;1.00;;;;;;5064015;28;20473;-79
2021/04/24 05:41:24;;;;;;;5.07;3.30;;;9.70;1.00;;;;;;5064237;28;20477;-78
2021/04/24 05:43:53;;;;;;;4.93;3.77;;;9.70;1.00;;;;;;5062153;28;20478;-79
2021/04/24 05:46:21;;;;;;;5.73;3.33;;;9.70;1.00;;;;;;5063783;28;20467;-80
2021/04/24 05:48:49;;;;;;;9.67;4.30;;;9.70;1.00;;;;;;5062769;28;20495;-80
2021/04/24 05:51:18;;;;;;;6.07;3.33;;;9.80;1.00;;;;;;5065641;28;20515;-79
2021/04/24 05:53:47;;;;;;;6.30;4.38;;;9.80;1.00;;;;;;5062886;28;21275;-80
2021/04/24 05:56:16;;;;;;;4.33;3.93;;;9.80;1.00;;;;;;5053035;28;20239;-77
2021/04/24 05:58:45;;;;;;;5.00;3.60;;;9.90;1.00;;;;;;5059424;28;20493;-77
2021/04/24 06:01:12;;;;;;;8.30;4.33;;;10.00;1.00;;;;;;5075036;28;20566;-77
2021/04/24 06:03:39;;;;;;;7.20;3.60;;;10.10;1.00;;;;;;5061175;28;20522;-77
2021/04/24 06:06:07;;;;;;;6.00;3.97;;;10.20;1.00;;;;;;5062905;28;20489;-78
2021/04/24 06:08:34;;;;;;;5.37;3.77;;;10.30;1.00;;;;;;5062571;28;20476;-75
2021/04/24 06:11:02;;;;;;;6.80;4.07;;;10.50;1.00;;;;;;5061808;28;20459;-77
2021/04/24 06:13:29;;;;;;;4.23;3.70;;;10.50;1.00;;;;;;5058356;28;20458;-77
2021/04/24 06:15:57;;;;;;;6.00;4.17;;;10.30;1.00;;;;;;5056602;28;20507;-81
2021/04/24 06:18:25;;;;;;;6.50;4.00;;;10.70;1.00;;;;;;5062291;28;20994;-80
2021/04/24 06:20:57;;;;;;;6.47;5.00;;;10.80;1.00;;;;;;5061546;28;20505;-80
2021/04/24 06:23:24;;;;;;;7.57;4.43;;;11.00;1.00;;;;;;5058006;28;20460;-77
2021/04/24 06:25:51;;;;;;;8.33;4.83;;;11.10;1.00;;;;;;5062009;28;20496;-79
2021/04/24 06:28:19;;;;;;;5.87;3.63;;;11.30;1.00;;;;;;5059617;28;20458;-79
2021/04/24 06:30:46;;;;;;;5.70;4.87;;;11.60;1.00;;;;;;5058128;28;21194;-78
2021/04/24 06:33:14;;;;;;;6.80;4.60;;;11.80;1.00;;;;;;5059607;28;20456;-78
2021/04/24 06:35:41;;;;;;;4.40;4.00;;;11.90;1.00;;;;;;5058411;28;20558;-80
2021/04/24 06:38:08;;;;;;;5.50;4.27;;;12.10;1.00;;;;;;5060038;28;20472;-80
2021/04/24 06:40:36;;;;;;;6.80;5.20;;;12.30;1.00;;;;;;5060535;28;21280;-80
2021/04/24 06:43:03;;;;;;;8.30;5.30;;;12.50;1.00;;;;;;5057194;28;20977;-79
2021/04/24 06:45:30;;;;;;;4.90;3.93;;;12.60;1.00;;;;;;5059153;28;20493;-79
2021/04/24 06:47:57;;;;;;;10.30;5.50;;;12.80;1.00;;;;;;5069542;28;20455;-79
2021/04/24 06:50:25;;;;;;;12.83;4.93;;;13.00;1.00;;;;;;5057593;28;20795;-79
2021/04/24 06:52:53;;;;;;;7.93;4.73;;;13.10;1.00;;;;;;5059157;28;20459;-81
2021/04/24 06:55:20;;;;;;;9.40;5.17;;;13.30;1.00;;;;;;5059313;28;20474;-79
2021/04/24 06:57:48;;;;;;;6.67;5.00;;;13.50;1.00;;;;;;5058248;28;21332;-81
2021/04/24 07:00:17;;;;;;;10.20;4.90;;;13.60;1.00;;;;;;5059213;28;21299;-80
2021/04/24 07:02:45;;;;;;;8.13;4.63;;;13.70;1.00;;;;;;5058725;28;20899;-80
2021/04/24 07:05:14;;;;;;;5.90;4.80;;;13.80;1.00;;;;;;5051548;28;20495;-78
2021/04/24 07:07:42;;;;;;;8.80;4.83;;;13.90;1.00;;;;;;5058748;28;20459;-77
2021/04/24 07:10:11;;;;;;;11.70;6.17;;;14.10;1.00;;;;;;5056336;28;20466;-78
2021/04/24 07:12:40;;;;;;;7.73;5.87;;;14.20;1.00;;;;;;5057674;28;20480;-79
2021/04/24 07:15:08;;;;;;;8.23;6.23;;;14.30;1.00;;;;;;5054694;28;20480;-79
2021/04/24 07:17:36;;;;;;;6.23;5.50;;;14.50;1.00;;;;;;5059677;28;20457;-78
2021/04/24 07:20:05;;;;;;;6.27;4.67;;;14.70;1.80;;;;;;5053337;28;20602;-82
2021/04/24 07:22:32;;;;;;;8.70;4.00;;;14.90;3.20;;;;;;5061664;28;20450;-81
2021/04/24 07:25:00;;;;;;;7.70;4.82;;;15.10;5.20;;;;;;5057383;28;20446;-80
2021/04/24 07:27:28;;;;;;;6.03;4.20;;;15.20;5.30;;;;;;5060426;28;20204;-79
2021/04/24 07:29:55;;;;;;;6.87;4.30;;;15.40;4.90;;;;;;5050234;28;20468;-79
2021/04/24 07:32:22;;;;;;;8.73;5.30;;;15.50;3.80;;;;;;5058445;28;20453;-79
2021/04/24 07:34:49;;;;;;;7.13;4.60;;;15.60;5.90;;;;;;5048086;28;20222;-79
2021/04/24 07:37:17;;;;;;;9.67;4.80;;;15.70;7.20;;;;;;5055632;28;20532;-76
2021/04/24 07:39:44;;;;;;;8.10;4.27;;;16.10;12.70;;;;;;5058828;28;20461;-76
2021/04/24 07:42:13;;;;;;;7.97;4.60;;;16.20;8.40;;;;;;5057068;28;20524;-78
2021/04/24 07:44:40;;;;;;;7.37;4.53;;;16.10;11.00;;;;;;5060341;28;20932;-78
2021/04/24 07:47:08;;;;;;;8.63;5.07;;;16.30;9.60;;;;;;5055352;28;21430;-77
2021/04/24 07:49:36;;;;;;;7.97;4.90;;;16.30;11.00;;;;;;5060099;28;20801;-76
2021/04/24 07:52:04;;;;;;;7.97;5.83;;;16.40;11.10;;;;;;5058273;28;20899;-79
2021/04/24 07:54:33;;;;;;;6.10;4.20;;;16.40;10.30;;;;;;5056910;28;21025;-81
2021/04/24 07:57:00;;;;;;;7.43;4.80;;;16.40;9.40;;;;;;5063498;28;20451;-79
2021/04/24 07:59:28;;;;;;;7.87;5.10;;;16.30;7.50;;;;;;5061253;28;20457;-80
2021/04/24 08:01:56;;;;;;;7.30;4.50;;;16.20;8.20;;;;;;5060322;28;20475;-79
2021/04/24 08:04:23;;;;;;;7.47;4.70;;;16.20;8.40;;;;;;5053449;28;20467;-78
2021/04/24 08:06:50;;;;;;;6.67;4.40;;;16.20;5.80;;;;;;5059919;28;20549;-80
2021/04/24 08:09:17;;;;;;;5.37;4.43;;;16.20;7.10;;;;;;5060781;28;20469;-79
2021/04/24 08:11:45;;;;;;;8.30;5.72;;;16.20;9.70;;;;;;5052754;28;20456;-81
2021/04/24 08:14:12;;;;;;;7.40;5.20;;;16.30;9.40;;;;;;5052902;28;20631;-80
2021/04/24 08:16:40;;;;;;;8.73;4.30;;;16.30;8.70;;;;;;5059300;28;20451;-80
2021/04/24 08:19:07;;;;;;;6.37;4.47;;;16.40;9.20;;;;;;5054207;28;20462;-82
2021/04/24 08:21:35;;;;;;;5.73;4.17;;;16.50;8.20;;;;;;5047509;28;20496;-80
2021/04/24 08:24:02;;;;;;;7.23;4.23;;;16.40;7.50;;;;;;5048696;28;20692;-79
2021/04/24 08:26:31;;;;;;;9.90;5.20;;;16.40;6.90;;;;;;5053503;28;21123;-80
2021/04/24 08:28:58;;;;;;;7.93;4.63;;;16.50;7.00;;;;;;5051634;28;20444;-79
2021/04/24 08:31:26;;;;;;;8.77;4.90;;;16.60;8.40;;;;;;5052926;28;20478;-80
2021/04/24 08:33:58;;;;;;;8.50;4.80;;;16.60;9.00;;;;;;5058298;28;20756;-80
2021/04/24 08:36:27;;;;;;;7.07;4.03;;;16.70;8.80;;;;;;5050539;28;20448;-80
2021/04/24 08:38:54;;;;;;;5.37;4.50;;;16.80;7.60;;;;;;5050708;28;20471;-81
2021/04/24 08:41:23;;;;;;;8.60;4.57;;;16.80;8.70;;;;;;5053021;28;21034;-80
2021/04/24 08:43:55;;;;;;;5.40;3.50;;;16.90;11.40;;;;;;5057169;28;20995;-82
2021/04/24 08:46:23;;;;;;;4.63;3.80;;;16.90;9.50;;;;;;5059000;28;20463;-83
2021/04/24 08:48:51;;;;;;;6.00;4.20;;;17.00;9.20;;;;;;5052402;28;20457;-82
2021/04/24 08:51:20;;;;;;;7.27;4.97;;;17.00;7.70;;;;;;5056941;28;21340;-80
2021/04/24 08:53:47;;;;;;;10.13;5.20;;;17.10;6.90;;;;;;5049989;28;20455;-82
2021/04/24 08:56:17;;;;;;;5.73;3.93;;;17.00;5.30;;;;;;5047091;28;20534;-82
2021/04/24 08:58:45;;;;;;;4.73;3.67;;;16.90;3.90;;;;;;5067050;28;21122;-81
2021/04/24 09:01:13;;;;;;;5.87;4.00;;;16.80;1.00;;;;;;5057999;28;21298;-80
2021/04/24 09:03:40;;;;;;;5.20;3.73;;;16.90;14.10;;;;;;5053275;28;20464;-81
2021/04/24 09:06:07;;;;;;;7.83;4.27;;;17.00;5.10;;;;;;5058215;28;20484;-81
2021/04/24 09:08:35;;;;;;;8.07;4.10;;;17.10;5.50;;;;;;5057365;28;20444;-80
2021/04/24 09:11:04;;;;;;;7.03;3.93;;;17.00;3.80;;;;;;5053504;28;20463;-81
2021/04/24 09:13:32;;;;;;;7.70;4.67;;;17.00;2.70;;;;;;5053087;28;20473;-81
2021/04/24 09:16:00;;;;;;;7.47;4.37;;;16.90;1.30;;;;;;5056439;28;20485;-79
2021/04/24 09:18:29;;;;;;;5.63;3.50;;;16.90;1.30;;;;;;5056483;28;20463;-82
2021/04/24 09:20:58;;;;;;;11.50;8.57;;;16.90;1.30;;;;;;5059365;28;21048;-81
2021/04/24 09:23:30;;;;;;;8.53;5.30;;;17.00;2.80;;;;;;5063774;28;20466;-78
2021/04/24 09:26:00;;;;;;;5.00;3.93;;;17.20;4.50;;;;;;5062542;28;20487;-76
2021/04/24 09:28:30;;;;;;;7.20;5.00;;;17.30;5.40;;;;;;5060355;28;20461;-77
2021/04/24 09:30:59;;;;;;;8.60;3.93;;;17.40;7.90;;;;;;5058007;28;20970;-76
2021/04/24 09:33:31;;;;;;;6.20;4.70;;;17.60;9.60;;;;;;5058745;28;20552;-77
2021/04/24 09:36:00;;;;;;;4.97;4.10;;;17.70;9.30;;;;;;5055571;28;20475;-81
2021/04/24 09:38:30;;;;;;;4.70;4.13;;;17.70;7.10;;;;;;5062162;28;20510;-82
2021/04/24 09:41:14;;;;;;;6.40;2.73;;;17.70;7.30;;;;;;5060035;28;20476;-77
2021/04/24 09:43:57;;;;;;;5.93;3.53;;;17.90;11.50;;;;;;5057577;28;20462;-77
2021/04/24 09:46:26;;;;;;;6.77;5.10;;;18.00;13.60;;;;;;5061902;28;20627;-77
2021/04/24 09:49:13;;;;;;;5.97;3.80;;;18.10;13.60;;;;;;5065507;28;20461;-77
2021/04/24 09:51:43;;;;;;;15.93;4.10;;;18.20;14.10;;;;;;5064911;28;20473;-80
2021/04/24 09:54:11;;;;;;;5.97;4.50;;;18.30;14.10;;;;;;5061215;28;20459;-75
2021/04/24 09:56:39;;;;;;;5.70;4.13;;;18.30;13.50;;;;;;5065529;28;20447;-80
2021/04/24 09:59:09;;;;;;;8.03;3.50;;;18.30;12.50;;;;;;5067645;28;20453;-80
2021/04/24 10:01:38;;;;;;;4.17;3.77;;;18.30;12.20;;;;;;5065307;28;20496;-76
2021/04/24 10:04:12;;;;;;;7.73;5.47;;;18.20;9.10;;;;;;5074133;28;20455;-82
2021/04/24 10:06:40;;;;;;;6.97;4.83;;;18.20;11.60;;;;;;5068417;28;21325;-80
2021/04/24 10:09:17;;;;;;;5.88;4.75;;;18.20;9.30;;;;;;5054071;28;20941;-82
2021/04/24 10:11:48;;;;;;;7.40;4.63;;;18.20;7.80;;;;;;5056662;28;20282;-79
2021/04/24 10:14:28;;;;;;;6.70;3.90;;;18.30;8.30;;;;;;5055710;28;21325;-82
2021/04/24 10:16:56;;;;;;;3.63;3.33;;;18.10;6.90;;;;;;5055768;28;20498;-79
2021/04/24 10:19:26;;;;;;;6.33;4.00;;;18.20;8.80;;;;;;5059959;28;20457;-81
2021/04/24 10:21:54;;;;;;;6.00;4.53;;;18.30;10.20;;;;;;5059869;28;20518;-82
2021/04/24 10:24:23;;;;;;;6.20;4.47;;;18.30;10.00;;;;;;5054468;28;20483;-80
2021/04/24 10:26:52;;;;;;;4.40;4.00;;;18.50;11.30;;;;;;5052625;28;20521;-82
2021/04/24 10:29:21;;;;;;;11.00;4.43;;;18.60;11.90;;;;;;5056147;28;20453;-80
2021/04/24 10:31:48;;;;;;;10.83;4.93;;;18.60;12.00;;;;;;5057869;28;20480;-81
2021/04/24 10:34:16;;;;;;;5.93;3.90;;;18.50;11.40;;;;;;5058217;28;20462;-81
2021/04/24 10:36:45;;;;;;;9.23;4.60;;;18.50;9.90;;;;;;5060991;28;20518;-83
2021/04/24 10:39:19;;;;;;;6.30;4.60;;;18.50;8.50;;;;;;5061490;28;20545;-79
2021/04/24 10:41:49;;;;;;;10.33;5.57;;;18.50;8.50;;;;;;5059382;28;20551;-81
2021/04/24 10:44:17;;;;;;;6.13;4.93;;;18.40;9.10;;;;;;5051963;28;20473;-82
2021/04/24 10:46:48;;;;;;;6.33;4.30;;;18.50;11.20;;;;;;5063501;28;20456;-80
2021/04/24 10:49:17;;;;;;;6.10;5.50;;;18.60;9.50;;;;;;5056678;28;20506;-81
2021/04/24 10:51:53;;;;;;;5.70;5.10;;;18.70;9.80;;;;;;5058339;28;20539;-83
2021/04/24 10:54:21;;;;;;;9.10;5.40;;;18.70;8.40;;;;;;5053033;28;20297;-80
2021/04/24 10:56:48;;;;;;;6.50;5.13;;;18.70;11.60;;;;;;5050346;28;20509;-80
2021/04/24 10:59:23;;;;;;;5.93;4.70;;;18.70;10.30;;;;;;5057079;28;20442;-80
2021/04/24 11:02:14;;;;;;;6.43;4.53;;;18.60;7.90;;;;;;5052928;28;20477;-82
2021/04/24 11:04:44;;;;;;;7.13;4.67;;;18.60;9.10;;;;;;5035590;28;20479;-78
2021/04/24 11:07:17;;;;;;;11.50;6.23;;;18.80;10.50;;;;;;5047739;28;20456;-82
2021/04/24 11:09:44;;;;;;;8.03;5.57;;;18.80;11.70;;;;;;5057251;28;20486;-81
2021/04/24 11:12:12;;;;;;;8.90;6.57;;;19.00;14.30;;;;;;5052678;28;20465;-81
2021/04/24 11:14:41;;;;;;;10.83;9.50;;;19.10;15.20;;;;;;5057505;28;20519;-80
2021/04/24 11:17:11;;;;;;;11.10;6.53;;;19.10;16.60;;;;;;5060103;28;20496;-79
2021/04/24 11:19:44;;;;;;;9.80;6.50;;;19.20;16.90;;;;;;5049922;28;20457;-80
2021/04/24 11:22:32;;;;;;;11.50;6.60;;;19.30;19.60;;;;;;5063052;28;20486;-81
2021/04/24 11:25:28;;;;;;;9.10;6.63;;;19.40;20.80;;;;;;5064655;28;20524;-82
2021/04/24 11:28:06;;;;;;;10.70;8.17;;;19.50;21.70;;;;;;5059901;28;20476;-84
2021/04/24 11:30:52;;;;;;;10.67;8.27;;;19.50;21.30;;;;;;5063435;28;20449;-84
2021/04/24 11:33:36;;;;;;;9.43;8.00;;;19.60;23.50;;;;;;5064442;28;20450;-80
2021/04/24 11:36:21;;;;;;;11.93;6.70;;;19.70;25.10;;;;;;5060670;28;20483;-81
2021/04/24 11:39:09;;;;;;;10.23;7.55;;;19.70;24.00;;;;;;5058569;28;21052;-83
2021/04/24 11:41:41;;;;;;;14.20;8.00;;;19.80;21.90;;;;;;5057597;28;20205;-85
2021/04/24 11:44:46;;;;;;;8.93;7.07;;;19.70;21.30;;;;;;5060086;28;20455;-86
2021/04/24 11:47:52;;;;;;;9.15;6.82;;;19.70;22.70;;;;;;5055603;28;20455;-82
2021/04/24 11:50:20;;;;;;;12.63;6.30;;;19.80;25.10;;;;;;5060686;28;20719;-81
2021/04/24 11:52:54;;;;;;;12.60;6.60;;;20.00;25.80;;;;;;5061504;28;20450;-83
2021/04/24 11:55:22;;;;;;;11.53;8.93;;;20.10;27.40;;;;;;5065032;28;20560;-82
2021/04/24 11:57:49;;;;;;;9.93;8.07;;;20.00;26.40;;;;;;5059249;28;20448;-83
2021/04/24 12:00:28;;;;;;;15.40;12.80;;;20.00;26.00;;;;;;5054725;28;20454;-82
2021/04/24 12:02:56;;;;;;;6.90;6.00;;;19.90;22.30;;;;;;5057214;28;20462;-83
2021/04/24 12:05:23;;;;;;;13.73;8.40;;;19.90;25.50;;;;;;5061394;28;20512;-84
2021/04/24 12:07:50;;;;;;;12.15;9.27;;;19.70;24.00;;;;;;5058755;28;20454;-84
2021/04/24 12:10:19;;;;;;;7.57;6.20;;;20.00;24.50;;;;;;5062814;28;20204;-83
2021/04/24 12:12:49;;;;;;;7.57;6.80;;;20.10;24.60;;;;;;5062843;28;20488;-83
2021/04/24 12:15:19;;;;;;;20.20;14.63;;;20.20;25.20;;;;;;5066224;28;20488;-81
2021/04/24 12:17:51;;;;;;;16.37;11.83;;;20.20;25.10;;;;;;5058591;28;20457;-80
2021/04/24 12:20:25;;;;;;;11.20;8.27;;;20.10;22.80;;;;;;5060756;28;20899;-83
2021/04/24 12:22:53;;;;;;;9.63;7.17;;;20.10;24.00;;;;;;5060562;28;20583;-82
2021/04/24 12:25:22;;;;;;;13.73;9.20;;;20.10;25.10;;;;;;5060050;28;20456;-82
2021/04/24 12:27:51;;;;;;;15.30;10.60;;;20.20;25.10;;;;;;5057951;28;20458;-81
2021/04/24 12:30:20;;;;;;;9.67;7.60;;;20.20;24.10;;;;;;5051819;28;20486;-79
2021/04/24 12:32:49;;;;;;;7.37;6.53;;;20.20;24.70;;;;;;5056200;28;20454;-84
2021/04/24 12:35:23;;;;;;;8.73;6.70;;;20.30;25.50;;;;;;5063928;28;20485;-84
2021/04/24 12:37:59;;;;;;;15.13;7.80;;;20.30;25.60;;;;;;5064414;28;20643;-82
2021/04/24 12:40:27;;;;;;;10.80;7.40;;;20.40;25.70;;;;;;5043914;28;20447;-82
2021/04/24 12:43:02;;;;;;;12.00;7.30;;;20.40;25.00;;;;;;5045336;28;20545;-84
2021/04/24 12:45:29;;;;;;;11.77;6.83;;;20.40;25.10;;;;;;5044067;28;20529;-83
2021/04/24 12:47:57;;;;;;;8.50;6.40;;;20.40;26.20;;;;;;5046323;28;21030;-82
2021/04/24 12:50:29;;;;;;;13.30;7.43;;;20.50;26.10;;;;;;5064836;28;20553;-84
2021/04/24 12:52:58;;;;;;;8.50;7.13;;;20.50;26.30;;;;;;5065453;28;20442;-83
2021/04/24 12:55:32;;;;;;;7.77;6.33;;;20.50;24.20;;;;;;5065493;28;20490;-83
2021/04/24 12:58:02;;;;;;;13.30;6.83;;;20.50;23.70;;;;;;5066440;28;20910;-85
2021/04/24 13:00:34;;;;;;;9.83;6.67;;;20.50;24.90;;;;;;5058644;28;20528;-83
2021/04/24 13:03:03;;;;;;;8.90;7.13;;;20.50;24.10;;;;;;5045528;28;20452;-83
2021/04/24 13:05:34;;;;;;;9.93;6.90;;;20.50;24.60;;;;;;5064734;28;20474;-83